Time;durP1;ratioP1;P1;durP2;ratioP2;P2;SDS_P1;SDS_P2;PMS_P1;PMS_P2;Temp;Humidity;BMP_temperature;BMP_pressure;BME280_temperature;BME280_humidity;BME280_pressure;Samples;Min_cycle;Max_cycle;Signal;HPM_P1;HPM_P2
2022/04/10 00:00:53;;;;;;;3.00;1.40;;;;;;;;;;5112045;28;20012;-60
2022/04/10 00:03:19;;;;;;;4.40;1.73;;;;;;;;;;5111969;28;20032;-60
2022/04/10 00:05:46;;;;;;;3.13;1.42;;;;;;;;;;5111650;28;20073;-60
2022/04/10 00:08:12;;;;;;;2.72;1.50;;;;;;;;;;5112039;28;20398;-60
2022/04/10 00:10:38;;;;;;;3.50;1.40;;;;;;;;;;5111960;28;20141;-59
2022/04/10 00:13:04;;;;;;;4.90;1.65;;;;;;;;;;5111793;28;20124;-61
2022/04/10 00:15:30;;;;;;;3.67;1.45;;;;;;;;;;5112119;28;20023;-59
2022/04/10 00:17:56;;;;;;;3.67;1.40;;;;;;;;;;5109993;28;20019;-59
2022/04/10 00:20:22;;;;;;;3.85;1.58;;;;;;;;;;5103658;28;20070;-60
2022/04/10 00:22:49;;;;;;;2.92;1.25;;;;;;;;;;5111706;28;20193;-59
2022/04/10 00:25:16;;;;;;;2.78;1.30;;;;;;;;;;5112282;28;20028;-59
2022/04/10 00:27:43;;;;;;;3.85;1.33;;;;;;;;;;5111940;28;20034;-60
2022/04/10 00:30:10;;;;;;;3.08;1.30;;;;;;;;;;5111775;28;20106;-60
2022/04/10 00:32:36;;;;;;;3.50;1.38;;;;;;;;;;5111914;28;20069;-61
2022/04/10 00:35:05;;;;;;;5.03;1.80;;;;;;;;;;5111721;28;20030;-60
2022/04/10 00:37:31;;;;;;;3.65;1.38;;;;;;;;;;5112084;28;20019;-59
2022/04/10 00:39:57;;;;;;;2.88;1.30;;;;;;;;;;5111447;28;20111;-60
2022/04/10 00:42:30;;;;;;;3.38;1.35;;;;;;;;;;5111328;28;20410;-60
2022/04/10 00:44:56;;;;;;;;;;;;;;;;;;5111717;28;20686;-61
2022/04/10 00:47:22;;;;;;;4.47;1.27;;;;;;;;;;5112283;28;19943;-61
2022/04/10 00:49:48;;;;;;;2.88;1.40;;;;;;;;;;5111993;28;20031;-59
2022/04/10 00:52:15;;;;;;;2.75;1.20;;;;;;;;;;5112029;28;20381;-59
2022/04/10 00:54:41;;;;;;;2.90;1.20;;;;;;;;;;5111735;28;20115;-59
2022/04/10 00:57:07;;;;;;;3.15;1.50;;;;;;;;;;5111583;28;20111;-60
2022/04/10 00:59:33;;;;;;;2.33;1.10;;;;;;;;;;5115766;28;20057;-59
2022/04/10 01:01:59;;;;;;;3.50;1.20;;;;;;;;;;5115812;28;20668;-61
2022/04/10 01:04:25;;;;;;;2.38;1.02;;;;;;;;;;5115721;28;20027;-59
2022/04/10 01:06:53;;;;;;;4.15;1.40;;;;;;;;;;5115288;28;20024;-59
2022/04/10 01:09:20;;;;;;;4.35;1.45;;;;;;;;;;5106178;28;20526;-60
2022/04/10 01:11:47;;;;;;;2.55;1.15;;;;;;;;;;5115826;28;20256;-59
2022/04/10 01:14:13;;;;;;;2.67;1.00;;;;;;;;;;5115362;28;20513;-60
2022/04/10 01:16:41;;;;;;;4.25;1.17;;;;;;;;;;5115810;28;20024;-59
2022/04/10 01:19:07;;;;;;;2.67;1.20;;;;;;;;;;5115729;28;20517;-59
2022/04/10 01:21:38;;;;;;;3.85;1.20;;;;;;;;;;5114916;28;20028;-60
2022/04/10 01:24:05;;;;;;;2.60;1.17;;;;;;;;;;5115493;28;20031;-59
2022/04/10 01:26:31;;;;;;;3.42;1.20;;;;;;;;;;5115386;28;20019;-60
2022/04/10 01:28:58;;;;;;;3.30;1.33;;;;;;;;;;5115219;28;20045;-59
2022/04/10 01:31:24;;;;;;;2.75;1.20;;;;;;;;;;5114700;28;20022;-59
2022/04/10 01:33:50;;;;;;;2.78;1.15;;;;;;;;;;5114920;28;20027;-60
2022/04/10 01:36:17;;;;;;;2.80;1.20;;;;;;;;;;5114770;28;20115;-59
2022/04/10 01:38:45;;;;;;;2.53;1.02;;;;;;;;;;5114971;28;20142;-59
2022/04/10 01:41:15;;;;;;;2.45;1.15;;;;;;;;;;5115022;28;20102;-59
2022/04/10 01:43:44;;;;;;;3.45;1.25;;;;;;;;;;5114801;28;20073;-59
2022/04/10 01:46:12;;;;;;;2.20;1.00;;;;;;;;;;5114801;28;20023;-60
2022/04/10 01:48:38;;;;;;;4.57;1.23;;;;;;;;;;5115209;28;20087;-59
2022/04/10 01:51:04;;;;;;;2.63;1.00;;;;;;;;;;5114647;28;20030;-59
2022/04/10 01:53:30;;;;;;;2.05;0.98;;;;;;;;;;5114321;28;20529;-59
2022/04/10 01:55:57;;;;;;;2.47;1.00;;;;;;;;;;5114900;28;20015;-59
2022/04/10 01:58:23;;;;;;;2.63;1.10;;;;;;;;;;5114564;28;20376;-60
2022/04/10 02:00:49;;;;;;;2.22;0.90;;;;;;;;;;5114900;28;20024;-60
2022/04/10 02:03:15;;;;;;;5.43;1.20;;;;;;;;;;5114260;28;20024;-59
2022/04/10 02:05:41;;;;;;;3.20;1.45;;;;;;;;;;5114312;28;20494;-60
2022/04/10 02:08:07;;;;;;;3.10;1.10;;;;;;;;;;5114359;28;20027;-59
2022/04/10 02:10:34;;;;;;;2.70;1.13;;;;;;;;;;5114476;28;20035;-60
2022/04/10 02:13:00;;;;;;;3.35;1.42;;;;;;;;;;5113859;28;20020;-59
2022/04/10 02:15:26;;;;;;;3.42;1.33;;;;;;;;;;5114469;28;20364;-59
2022/04/10 02:17:52;;;;;;;2.42;1.10;;;;;;;;;;5114453;28;20466;-59
2022/04/10 02:20:18;;;;;;;3.42;1.15;;;;;;;;;;5110716;28;20111;-60
2022/04/10 02:22:44;;;;;;;3.13;1.10;;;;;;;;;;5113626;28;20058;-59
2022/04/10 02:25:10;;;;;;;2.50;0.90;;;;;;;;;;5113805;28;20035;-60
2022/04/10 02:27:36;;;;;;;2.78;1.05;;;;;;;;;;5113727;28;20152;-59
2022/04/10 02:30:03;;;;;;;2.53;1.20;;;;;;;;;;5114131;28;20031;-60
2022/04/10 02:32:30;;;;;;;2.50;1.17;;;;;;;;;;5113789;28;20015;-59
2022/04/10 02:34:56;;;;;;;4.43;1.52;;;;;;;;;;5102696;28;20072;-59
2022/04/10 02:37:22;;;;;;;3.75;1.20;;;;;;;;;;5113750;28;20549;-60
2022/04/10 02:39:48;;;;;;;1.92;0.95;;;;;;;;;;5113418;28;20478;-60
2022/04/10 02:42:14;;;;;;;2.58;0.93;;;;;;;;;;5113699;28;20093;-59
2022/04/10 02:44:41;;;;;;;3.33;1.15;;;;;;;;;;5113332;28;20057;-60
2022/04/10 02:47:07;;;;;;;2.35;1.00;;;;;;;;;;5113844;28;20416;-59
2022/04/10 02:49:33;;;;;;;2.13;1.05;;;;;;;;;;5114126;28;20032;-61
2022/04/10 02:51:59;;;;;;;2.33;1.00;;;;;;;;;;5113641;28;20104;-61
2022/04/10 02:54:25;;;;;;;2.67;1.15;;;;;;;;;;5114066;28;20027;-61
2022/04/10 02:56:51;;;;;;;2.20;0.95;;;;;;;;;;5113484;28;20077;-59
2022/04/10 02:59:17;;;;;;;3.08;1.27;;;;;;;;;;5113110;28;20114;-59
2022/04/10 03:01:43;;;;;;;2.35;1.10;;;;;;;;;;5113710;28;20025;-60
2022/04/10 03:04:09;;;;;;;1.45;0.73;;;;;;;;;;5112745;28;20032;-60
2022/04/10 03:06:35;;;;;;;3.15;1.20;;;;;;;;;;5112835;28;20032;-59
2022/04/10 03:09:02;;;;;;;3.55;1.20;;;;;;;;;;5112670;28;20039;-59
2022/04/10 03:11:28;;;;;;;2.50;1.08;;;;;;;;;;5112963;28;20027;-60
2022/04/10 03:13:54;;;;;;;3.22;1.25;;;;;;;;;;5095147;28;20419;-60
2022/04/10 03:16:20;;;;;;;3.00;1.20;;;;;;;;;;5113059;28;20030;-59
2022/04/10 03:18:46;;;;;;;3.67;1.30;;;;;;;;;;5092945;28;20101;-59
2022/04/10 03:21:12;;;;;;;3.65;1.30;;;;;;;;;;5101657;28;20024;-60
2022/04/10 03:23:38;;;;;;;2.97;1.27;;;;;;;;;;5112888;28;20035;-59
2022/04/10 03:26:04;;;;;;;2.22;1.00;;;;;;;;;;5103817;28;20620;-60
2022/04/10 03:28:30;;;;;;;6.05;1.45;;;;;;;;;;5107378;28;20039;-58
2022/04/10 03:30:59;;;;;;;3.13;1.20;;;;;;;;;;5112958;28;20076;-60
2022/04/10 03:33:25;;;;;;;2.85;1.02;;;;;;;;;;5113458;28;20051;-60
2022/04/10 03:35:52;;;;;;;8.50;1.45;;;;;;;;;;5113163;28;20479;-61
2022/04/10 03:38:18;;;;;;;6.78;1.10;;;;;;;;;;5112152;28;20371;-59
2022/04/10 03:40:44;;;;;;;3.85;1.02;;;;;;;;;;5112410;28;20588;-60
2022/04/10 03:43:11;;;;;;;2.67;1.02;;;;;;;;;;5112217;28;20090;-61
2022/04/10 03:45:38;;;;;;;5.40;1.20;;;;;;;;;;5112335;28;20050;-60
2022/04/10 03:48:04;;;;;;;3.92;1.05;;;;;;;;;;5112439;28;20054;-60
2022/04/10 03:50:30;;;;;;;2.75;1.05;;;;;;;;;;5112482;28;20080;-59
2022/04/10 03:52:56;;;;;;;2.15;0.90;;;;;;;;;;5112622;28;20514;-61
2022/04/10 03:55:22;;;;;;;2.70;1.20;;;;;;;;;;5112400;28;20041;-61
2022/04/10 03:57:48;;;;;;;3.38;1.38;;;;;;;;;;5092248;28;20028;-60
2022/04/10 04:00:15;;;;;;;3.00;1.17;;;;;;;;;;5106497;28;20125;-59
2022/04/10 04:02:42;;;;;;;4.85;1.20;;;;;;;;;;5111932;28;20024;-59
2022/04/10 04:05:09;;;;;;;2.95;1.30;;;;;;;;;;5111675;28;20543;-59
2022/04/10 04:07:35;;;;;;;2.95;1.00;;;;;;;;;;5112067;28;20491;-59
2022/04/10 04:10:01;;;;;;;2.38;1.13;;;;;;;;;;5111598;28;20019;-61
2022/04/10 04:12:27;;;;;;;2.75;1.10;;;;;;;;;;5112108;28;20027;-60
2022/04/10 04:14:53;;;;;;;3.10;1.20;;;;;;;;;;5112127;28;20037;-59
2022/04/10 04:17:19;;;;;;;3.47;1.30;;;;;;;;;;5112012;28;20107;-59
2022/04/10 04:19:50;;;;;;;2.72;1.20;;;;;;;;;;5111704;28;20064;-59
2022/04/10 04:22:17;;;;;;;3.72;1.55;;;;;;;;;;5111651;28;20019;-59
2022/04/10 04:24:43;;;;;;;3.00;1.20;;;;;;;;;;5111913;28;20116;-59
2022/04/10 04:27:09;;;;;;;3.17;1.30;;;;;;;;;;5112088;28;20467;-60
2022/04/10 04:29:35;;;;;;;2.95;1.40;;;;;;;;;;5111874;28;20091;-60
2022/04/10 04:32:02;;;;;;;2.97;1.40;;;;;;;;;;5111372;28;20027;-59
2022/04/10 04:34:28;;;;;;;3.08;1.13;;;;;;;;;;5111519;28;20036;-60
2022/04/10 04:36:54;;;;;;;3.05;1.35;;;;;;;;;;5111446;28;20024;-59
2022/04/10 04:39:20;;;;;;;3.92;1.50;;;;;;;;;;5111708;28;20081;-60
2022/04/10 04:41:46;;;;;;;4.68;1.50;;;;;;;;;;5111474;28;20034;-61
2022/04/10 04:44:12;;;;;;;9.50;1.35;;;;;;;;;;5111755;28;20441;-59
2022/04/10 04:46:38;;;;;;;2.50;1.02;;;;;;;;;;5111878;28;20024;-59
2022/04/10 04:49:04;;;;;;;3.17;1.33;;;;;;;;;;5111694;28;20089;-57
2022/04/10 04:51:36;;;;;;;4.95;1.52;;;;;;;;;;5111768;28;20107;-58
2022/04/10 04:54:02;;;;;;;3.05;1.33;;;;;;;;;;5111262;28;20351;-58
2022/04/10 04:56:28;;;;;;;2.75;1.00;;;;;;;;;;5111549;28;20027;-61
2022/04/10 04:58:54;;;;;;;4.18;1.30;;;;;;;;;;5111332;28;20028;-59
2022/04/10 05:01:20;;;;;;;4.78;1.33;;;;;;;;;;5111495;28;20039;-60
2022/04/10 05:03:46;;;;;;;2.90;1.33;;;;;;;;;;5110739;28;20501;-60
2022/04/10 05:06:12;;;;;;;3.05;1.20;;;;;;;;;;5111127;28;20467;-59
2022/04/10 05:08:39;;;;;;;2.78;1.20;;;;;;;;;;5111418;28;20024;-61
2022/04/10 05:11:08;;;;;;;4.45;1.00;;;;;;;;;;5111212;28;20104;-59
2022/04/10 05:13:35;;;;;;;3.45;1.08;;;;;;;;;;5111264;28;20129;-60
2022/04/10 05:16:01;;;;;;;3.20;1.00;;;;;;;;;;5112177;28;20020;-59
2022/04/10 05:18:27;;;;;;;2.53;1.10;;;;;;;;;;5112122;28;20608;-59
2022/04/10 05:20:53;;;;;;;3.65;1.30;;;;;;;;;;5111937;28;20015;-59
2022/04/10 05:23:20;;;;;;;3.25;1.10;;;;;;;;;;5111443;28;20028;-60
2022/04/10 05:25:48;;;;;;;3.63;1.40;;;;;;;;;;5110510;28;20035;-60
2022/04/10 05:28:14;;;;;;;4.18;1.35;;;;;;;;;;5111500;28;20028;-59
2022/04/10 05:30:41;;;;;;;2.53;1.15;;;;;;;;;;5111487;28;20026;-59
2022/04/10 05:33:07;;;;;;;3.15;1.20;;;;;;;;;;5111279;28;20028;-60
2022/04/10 05:35:33;;;;;;;4.13;1.27;;;;;;;;;;5111546;28;20050;-61
2022/04/10 05:38:00;;;;;;;2.90;1.20;;;;;;;;;;5111466;28;20047;-60
2022/04/10 05:40:26;;;;;;;3.28;1.35;;;;;;;;;;5111591;28;20479;-60
2022/04/10 05:42:52;;;;;;;4.75;1.35;;;;;;;;;;5110865;28;20074;-60
2022/04/10 05:45:18;;;;;;;4.10;1.48;;;;;;;;;;5114647;28;20027;-60
2022/04/10 05:47:44;;;;;;;3.47;1.50;;;;;;;;;;5115328;28;20352;-60
2022/04/10 05:50:11;;;;;;;2.97;1.20;;;;;;;;;;5115510;28;20020;-60
2022/04/10 05:52:43;;;;;;;3.85;1.38;;;;;;;;;;5115412;28;20032;-60
2022/04/10 05:55:10;;;;;;;5.22;1.27;;;;;;;;;;5115129;28;20118;-61
2022/04/10 05:57:36;;;;;;;3.08;1.38;;;;;;;;;;5115490;28;20027;-61
2022/04/10 06:00:05;;;;;;;2.42;1.10;;;;;;;;;;5115579;28;20015;-62
2022/04/10 06:02:31;;;;;;;2.88;1.20;;;;;;;;;;5115301;28;20478;-59
2022/04/10 06:04:57;;;;;;;4.00;1.40;;;;;;;;;;5114137;28;20168;-59
2022/04/10 06:07:23;;;;;;;3.85;1.38;;;;;;;;;;5114717;28;20032;-59
2022/04/10 06:09:49;;;;;;;2.72;1.13;;;;;;;;;;5115122;28;20026;-61
2022/04/10 06:12:16;;;;;;;4.60;1.45;;;;;;;;;;5115212;28;20051;-59
2022/04/10 06:14:42;;;;;;;2.60;1.20;;;;;;;;;;5115385;28;20024;-60
2022/04/10 06:17:08;;;;;;;4.53;1.20;;;;;;;;;;5114826;28;20077;-60
2022/04/10 06:19:34;;;;;;;3.03;1.30;;;;;;;;;;5114839;28;20032;-60
2022/04/10 06:22:01;;;;;;;3.17;1.30;;;;;;;;;;5114222;28;20520;-60
2022/04/10 06:24:27;;;;;;;4.55;1.35;;;;;;;;;;5114200;28;20051;-59
2022/04/10 06:26:53;;;;;;;4.88;1.55;;;;;;;;;;5114487;28;20382;-61
2022/04/10 06:29:20;;;;;;;5.72;1.80;;;;;;;;;;5114353;28;20102;-60
2022/04/10 06:31:46;;;;;;;3.80;1.48;;;;;;;;;;5113989;28;20034;-59
2022/04/10 06:34:12;;;;;;;5.70;1.50;;;;;;;;;;5113753;28;20046;-61
2022/04/10 06:36:42;;;;;;;3.40;1.63;;;;;;;;;;5113417;28;20536;-59
2022/04/10 06:39:09;;;;;;;3.63;1.58;;;;;;;;;;5113767;28;20482;-59
2022/04/10 06:41:35;;;;;;;5.20;1.48;;;;;;;;;;5114035;28;20030;-59
2022/04/10 06:44:03;;;;;;;2.55;1.10;;;;;;;;;;5113902;28;20051;-59
2022/04/10 06:46:29;;;;;;;3.35;1.30;;;;;;;;;;5113958;28;20078;-59
2022/04/10 06:48:55;;;;;;;4.88;1.23;;;;;;;;;;5114172;28;20089;-59
2022/04/10 06:51:21;;;;;;;4.57;1.40;;;;;;;;;;5114155;28;20044;-59
2022/04/10 06:53:48;;;;;;;4.32;1.30;;;;;;;;;;5114337;28;20055;-60
2022/04/10 06:56:14;;;;;;;2.13;0.98;;;;;;;;;;5114065;28;20027;-59
2022/04/10 06:58:40;;;;;;;2.67;1.40;;;;;;;;;;5113734;28;20023;-59
2022/04/10 07:01:06;;;;;;;2.58;1.00;;;;;;;;;;5113373;28;20020;-60
2022/04/10 07:03:33;;;;;;;2.75;1.10;;;;;;;;;;5112528;28;20442;-60
2022/04/10 07:05:59;;;;;;;2.55;1.20;;;;;;;;;;5105080;28;20398;-59
2022/04/10 07:08:26;;;;;;;4.07;1.27;;;;;;;;;;5113235;28;20095;-59
2022/04/10 07:10:52;;;;;;;2.28;1.10;;;;;;;;;;5112509;28;20032;-60
2022/04/10 07:13:18;;;;;;;2.33;1.10;;;;;;;;;;5112895;28;20111;-61
2022/04/10 07:15:45;;;;;;;6.05;0.90;;;;;;;;;;5113122;28;20114;-61
2022/04/10 07:18:11;;;;;;;2.50;0.90;;;;;;;;;;5113494;28;20099;-60
2022/04/10 07:20:37;;;;;;;3.83;1.00;;;;;;;;;;5113044;28;20031;-59
2022/04/10 07:25:48;;;;;;;2.67;1.15;;;;;;;;;;5111992;28;20452;-60
2022/04/10 07:28:14;;;;;;;5.18;1.10;;;;;;;;;;5113715;28;20020;-61
2022/04/10 07:30:40;;;;;;;2.88;0.88;;;;;;;;;;5113368;28;20475;-59
2022/04/10 07:33:07;;;;;;;3.35;1.08;;;;;;;;;;5112890;28;20028;-59
2022/04/10 07:35:36;;;;;;;2.58;1.00;;;;;;;;;;5112447;28;20038;-61
2022/04/10 07:38:03;;;;;;;2.30;0.98;;;;;;;;;;5108991;28;20020;-61
2022/04/10 07:40:29;;;;;;;2.75;1.00;;;;;;;;;;5113199;28;20012;-61
2022/04/10 07:42:57;;;;;;;2.13;1.00;;;;;;;;;;5113173;28;20486;-60
2022/04/10 07:48:08;;;;;;;3.92;1.00;;;;;;;;;;5111907;28;20035;-61
2022/04/10 07:50:34;;;;;;;3.22;0.65;;;;;;;;;;5112657;28;20031;-59
2022/04/10 07:53:00;;;;;;;2.67;1.20;;;;;;;;;;5112285;28;20020;-59
2022/04/10 07:55:27;;;;;;;4.18;1.10;;;;;;;;;;5112849;28;20058;-60
2022/04/10 07:57:54;;;;;;;1.75;0.73;;;;;;;;;;5112174;28;20096;-60
2022/04/10 08:00:20;;;;;;;3.60;1.05;;;;;;;;;;5112490;28;20068;-60
2022/04/10 08:02:48;;;;;;;2.33;0.80;;;;;;;;;;5113151;28;20035;-61
2022/04/10 08:05:14;;;;;;;2.50;0.90;;;;;;;;;;5112368;28;20448;-61
2022/04/10 08:07:46;;;;;;;4.05;1.13;;;;;;;;;;5111292;28;20076;-60
2022/04/10 08:10:13;;;;;;;3.35;1.10;;;;;;;;;;5111617;28;20024;-60
2022/04/10 08:12:43;;;;;;;3.78;0.90;;;;;;;;;;5112308;28;20031;-60
2022/04/10 08:15:09;;;;;;;3.78;1.33;;;;;;;;;;5111805;28;20023;-60
2022/04/10 08:17:36;;;;;;;4.22;1.38;;;;;;;;;;5110213;28;20020;-58
2022/04/10 08:20:05;;;;;;;2.42;0.85;;;;;;;;;;5099599;28;20102;-60
2022/04/10 08:22:34;;;;;;;2.42;0.95;;;;;;;;;;5110362;28;20027;-60
2022/04/10 08:25:02;;;;;;;2.45;1.00;;;;;;;;;;5111301;28;20036;-60
2022/04/10 08:27:28;;;;;;;6.72;1.30;;;;;;;;;;5111533;28;20022;-60
2022/04/10 08:29:54;;;;;;;3.60;0.80;;;;;;;;;;5110487;28;20240;-60
2022/04/10 08:32:21;;;;;;;1.92;0.77;;;;;;;;;;5111513;28;20019;-61
2022/04/10 08:34:47;;;;;;;3.20;1.10;;;;;;;;;;5111253;28;20028;-60
2022/04/10 08:37:13;;;;;;;4.18;1.05;;;;;;;;;;5111156;28;20050;-60
2022/04/10 08:39:39;;;;;;;2.55;1.00;;;;;;;;;;5111126;28;20020;-60
2022/04/10 08:42:06;;;;;;;5.00;1.00;;;;;;;;;;5111524;28;20107;-58
2022/04/10 08:44:33;;;;;;;2.40;0.90;;;;;;;;;;5111141;28;20096;-60
2022/04/10 08:46:59;;;;;;;5.30;1.15;;;;;;;;;;5111496;28;20402;-60
2022/04/10 08:49:26;;;;;;;1.73;0.80;;;;;;;;;;5111472;28;20488;-60
2022/04/10 08:51:53;;;;;;;2.22;0.82;;;;;;;;;;5111250;28;20390;-59
2022/04/10 08:54:20;;;;;;;2.72;1.20;;;;;;;;;;5111669;28;20102;-59
2022/04/10 08:56:46;;;;;;;3.42;0.93;;;;;;;;;;5111261;28;20027;-59
2022/04/10 08:59:12;;;;;;;2.70;1.00;;;;;;;;;;5111551;28;20121;-59
2022/04/10 09:01:39;;;;;;;3.03;1.10;;;;;;;;;;5110725;28;20019;-61
2022/04/10 09:04:05;;;;;;;2.58;0.82;;;;;;;;;;5095121;28;20036;-60
2022/04/10 09:06:31;;;;;;;5.47;1.10;;;;;;;;;;5109261;28;20030;-60
2022/04/10 09:09:24;;;;;;;2.60;0.90;;;;;;;;;;5099056;28;20046;-60
2022/04/10 09:11:51;;;;;;;6.00;1.00;;;;;;;;;;5101426;28;20027;-61
2022/04/10 09:14:36;;;;;;;4.55;0.65;;;;;;;;;;5096092;28;20028;-59
2022/04/10 09:17:12;;;;;;;3.22;1.10;;;;;;;;;;5093943;28;20027;-60
2022/04/10 09:19:39;;;;;;;4.35;1.33;;;;;;;;;;5113480;28;20171;-59
2022/04/10 09:22:21;;;;;;;4.95;0.80;;;;;;;;;;5099638;28;20020;-59
2022/04/10 09:25:02;;;;;;;12.93;10.45;;;;;;;;;;5100938;28;20063;-59
2022/04/10 09:27:35;;;;;;;15.55;12.98;;;;;;;;;;5114595;28;20051;-60
2022/04/10 09:30:02;;;;;;;19.38;12.68;;;;;;;;;;5109411;28;20087;-59
2022/04/10 09:32:38;;;;;;;30.92;16.10;;;;;;;;;;5110892;28;20099;-60
2022/04/10 09:35:04;;;;;;;28.33;15.75;;;;;;;;;;5111769;28;20446;-60
2022/04/10 09:37:41;;;;;;;42.53;15.23;;;;;;;;;;5113729;28;20065;-60
2022/04/10 09:40:25;;;;;;;34.47;16.30;;;;;;;;;;5112129;28;20023;-59
2022/04/10 09:42:58;;;;;;;43.05;14.95;;;;;;;;;;5114862;28;20537;-59
2022/04/10 09:45:28;;;;;;;36.35;13.63;;;;;;;;;;5113174;28;20040;-60
2022/04/10 09:47:54;;;;;;;34.42;12.05;;;;;;;;;;5113326;28;20175;-60
2022/04/10 09:50:30;;;;;;;32.28;10.65;;;;;;;;;;5114581;28;20108;-59
2022/04/10 09:52:56;;;;;;;23.60;10.15;;;;;;;;;;5114907;28;20023;-59
2022/04/10 09:55:38;;;;;;;26.25;9.70;;;;;;;;;;5114893;28;20028;-58
2022/04/10 09:58:08;;;;;;;23.77;8.80;;;;;;;;;;5114845;28;20608;-59
2022/04/10 10:00:36;;;;;;;22.48;8.30;;;;;;;;;;5114440;28;20081;-59
2022/04/10 10:03:04;;;;;;;22.80;8.07;;;;;;;;;;5114560;28;20020;-59
2022/04/10 10:05:30;;;;;;;18.55;7.60;;;;;;;;;;5104843;28;20032;-60
2022/04/10 10:07:57;;;;;;;16.73;6.70;;;;;;;;;;5107229;28;20024;-60
2022/04/10 10:10:23;;;;;;;17.00;6.85;;;;;;;;;;5114175;28;20023;-60
2022/04/10 10:12:52;;;;;;;20.80;6.13;;;;;;;;;;5113925;28;20467;-60
2022/04/10 10:15:18;;;;;;;13.73;5.57;;;;;;;;;;5114071;28;20028;-60
2022/04/10 10:17:44;;;;;;;16.35;5.50;;;;;;;;;;5113646;28;20088;-59
2022/04/10 10:20:11;;;;;;;16.30;5.05;;;;;;;;;;5113959;28;20049;-59
2022/04/10 10:22:37;;;;;;;13.80;4.68;;;;;;;;;;5111947;28;20470;-59
2022/04/10 10:25:09;;;;;;;13.77;4.53;;;;;;;;;;5106531;28;20054;-60
2022/04/10 10:27:36;;;;;;;12.65;4.22;;;;;;;;;;5093531;28;20024;-59
2022/04/10 10:30:18;;;;;;;13.30;4.65;;;;;;;;;;5112361;28;20016;-59
2022/04/10 10:32:48;;;;;;;15.35;4.47;;;;;;;;;;5113434;28;20027;-59
2022/04/10 10:35:32;;;;;;;16.83;3.70;;;;;;;;;;5113507;28;20019;-59
2022/04/10 10:38:00;;;;;;;15.15;3.55;;;;;;;;;;5113493;28;20540;-59
2022/04/10 10:40:26;;;;;;;11.13;3.20;;;;;;;;;;5113167;28;20423;-59
2022/04/10 10:42:56;;;;;;;13.30;3.25;;;;;;;;;;5113422;28;20048;-59
2022/04/10 10:45:33;;;;;;;8.60;2.97;;;;;;;;;;5108683;28;20039;-59
2022/04/10 10:48:02;;;;;;;9.35;2.80;;;;;;;;;;5113471;28;20051;-59
2022/04/10 10:50:29;;;;;;;6.63;2.00;;;;;;;;;;5110665;28;20019;-60
2022/04/10 10:53:07;;;;;;;7.85;2.00;;;;;;;;;;5113131;28;20020;-60
2022/04/10 10:55:50;;;;;;;7.10;1.90;;;;;;;;;;5113006;28;20034;-60
2022/04/10 10:58:30;;;;;;;6.30;2.00;;;;;;;;;;5104989;28;20025;-60
2022/04/10 11:01:00;;;;;;;10.13;2.40;;;;;;;;;;5112854;28;20020;-60
2022/04/10 11:03:29;;;;;;;11.98;2.30;;;;;;;;;;5105029;28;20031;-60
2022/04/10 11:06:05;;;;;;;6.07;1.77;;;;;;;;;;5099488;27;20088;-59
2022/04/10 11:08:40;;;;;;;8.85;1.90;;;;;;;;;;5102127;28;20043;-60
2022/04/10 11:11:07;;;;;;;12.27;2.25;;;;;;;;;;5112336;28;20152;-60
2022/04/10 11:13:42;;;;;;;6.72;1.52;;;;;;;;;;5110701;28;20110;-60
2022/04/10 11:16:12;;;;;;;6.53;1.73;;;;;;;;;;5087167;28;20028;-60
2022/04/10 11:18:50;;;;;;;7.22;1.63;;;;;;;;;;5103946;28;20085;-60
2022/04/10 11:21:20;;;;;;;4.70;1.60;;;;;;;;;;5098387;28;20035;-60
2022/04/10 11:23:46;;;;;;;5.28;1.40;;;;;;;;;;5095844;28;20020;-59
2022/04/10 11:26:13;;;;;;;6.75;1.58;;;;;;;;;;5109085;28;20020;-61
2022/04/10 11:28:57;;;;;;;4.72;1.40;;;;;;;;;;5110260;28;20022;-60
2022/04/10 11:31:44;;;;;;;5.75;1.48;;;;;;;;;;5112576;28;20026;-59
2022/04/10 11:34:13;;;;;;;5.65;1.20;;;;;;;;;;5093595;28;20020;-59
2022/04/10 11:36:48;;;;;;;4.80;1.52;;;;;;;;;;5110318;28;20062;-60
2022/04/10 11:39:16;;;;;;;5.68;1.60;;;;;;;;;;5098587;28;20011;-60
2022/04/10 11:41:42;;;;;;;5.03;1.55;;;;;;;;;;5109282;28;20023;-60
2022/04/10 11:44:09;;;;;;;3.85;1.17;;;;;;;;;;5105979;28;20032;-60
2022/04/10 11:46:35;;;;;;;2.97;1.10;;;;;;;;;;5095149;28;20031;-59
2022/04/10 11:49:02;;;;;;;5.50;1.35;;;;;;;;;;5107371;28;20024;-60
2022/04/10 11:51:28;;;;;;;5.95;1.40;;;;;;;;;;5100822;28;20011;-60
2022/04/10 11:54:00;;;;;;;2.67;0.90;;;;;;;;;;5111768;28;20016;-60
2022/04/10 11:56:26;;;;;;;4.05;1.13;;;;;;;;;;5093582;28;20485;-60
2022/04/10 11:58:52;;;;;;;3.47;1.20;;;;;;;;;;5100660;28;20028;-60
2022/04/10 12:01:19;;;;;;;3.42;0.98;;;;;;;;;;5098307;28;20497;-60
2022/04/10 12:03:49;;;;;;;2.58;1.02;;;;;;;;;;5111336;28;20489;-60
2022/04/10 12:06:21;;;;;;;4.88;1.17;;;;;;;;;;5098077;28;20024;-59
2022/04/10 12:08:48;;;;;;;3.35;0.90;;;;;;;;;;5109142;28;20031;-60
2022/04/10 12:11:15;;;;;;;3.63;1.05;;;;;;;;;;5111164;28;20577;-60
2022/04/10 12:13:41;;;;;;;2.80;0.80;;;;;;;;;;5102835;28;20024;-60
2022/04/10 12:16:11;;;;;;;3.05;0.90;;;;;;;;;;5103471;28;20035;-59
2022/04/10 12:18:48;;;;;;;2.97;0.90;;;;;;;;;;5111660;28;20016;-60
2022/04/10 12:21:14;;;;;;;2.92;0.80;;;;;;;;;;5096319;28;20026;-60
2022/04/10 12:23:41;;;;;;;2.75;0.88;;;;;;;;;;5102758;28;20024;-59
2022/04/10 12:26:08;;;;;;;3.25;0.80;;;;;;;;;;5097644;28;20391;-59
2022/04/10 12:28:35;;;;;;;3.72;0.80;;;;;;;;;;5107390;28;20015;-59
2022/04/10 12:31:01;;;;;;;3.30;1.23;;;;;;;;;;5094398;28;20083;-59
2022/04/10 12:33:28;;;;;;;2.13;0.77;;;;;;;;;;5104537;28;20091;-59
2022/04/10 12:35:54;;;;;;;2.83;0.77;;;;;;;;;;5097039;28;20350;-60
2022/04/10 12:38:20;;;;;;;7.85;0.93;;;;;;;;;;5103683;28;20024;-58
2022/04/10 12:40:46;;;;;;;11.60;1.20;;;;;;;;;;5109399;28;20019;-60
2022/04/10 12:43:13;;;;;;;5.55;1.15;;;;;;;;;;5108545;28;20444;-60
2022/04/10 12:45:40;;;;;;;10.57;1.00;;;;;;;;;;5108894;28;20059;-60
2022/04/10 12:48:22;;;;;;;2.40;0.77;;;;;;;;;;5111646;28;20024;-60
2022/04/10 12:51:03;;;;;;;6.68;1.52;;;;;;;;;;5103358;28;20102;-59
2022/04/10 12:53:29;;;;;;;6.80;0.73;;;;;;;;;;5098079;28;20044;-60
2022/04/10 12:55:55;;;;;;;4.28;0.77;;;;;;;;;;5113367;28;20028;-60
2022/04/10 12:58:21;;;;;;;3.58;0.60;;;;;;;;;;5115222;28;20015;-60
2022/04/10 13:00:48;;;;;;;3.65;0.73;;;;;;;;;;5106234;28;20024;-60
2022/04/10 13:03:27;;;;;;;2.22;0.70;;;;;;;;;;5095679;28;20540;-60
2022/04/10 13:05:57;;;;;;;3.35;0.80;;;;;;;;;;5111013;28;20035;-60
2022/04/10 13:08:24;;;;;;;3.65;0.70;;;;;;;;;;5109898;28;20016;-60
2022/04/10 13:10:51;;;;;;;5.38;1.05;;;;;;;;;;5104230;28;20043;-60
2022/04/10 13:13:17;;;;;;;2.20;0.75;;;;;;;;;;5102338;28;20027;-61
2022/04/10 13:15:43;;;;;;;2.53;0.63;;;;;;;;;;5112174;28;20390;-60
2022/04/10 13:18:09;;;;;;;2.15;0.50;;;;;;;;;;5097043;28;20038;-61
2022/04/10 13:20:39;;;;;;;4.65;0.77;;;;;;;;;;5099681;28;20151;-60
2022/04/10 13:23:06;;;;;;;3.03;0.63;;;;;;;;;;5102900;28;20052;-60
2022/04/10 13:25:32;;;;;;;4.53;0.63;;;;;;;;;;5107554;28;20027;-60
2022/04/10 13:28:01;;;;;;;3.97;0.60;;;;;;;;;;5103970;28;20550;-60
2022/04/10 13:30:29;;;;;;;2.30;0.63;;;;;;;;;;5115322;28;20016;-59
2022/04/10 13:32:56;;;;;;;0.80;0.40;;;;;;;;;;5104987;28;20024;-60
2022/04/10 13:35:22;;;;;;;2.05;0.73;;;;;;;;;;5109786;28;20023;-60
2022/04/10 13:37:48;;;;;;;3.03;0.60;;;;;;;;;;5107629;28;20486;-60
2022/04/10 13:40:17;;;;;;;3.97;0.40;;;;;;;;;;5103259;28;20409;-60
2022/04/10 13:42:44;;;;;;;1.23;0.60;;;;;;;;;;5108103;28;20052;-61
2022/04/10 13:45:11;;;;;;;10.10;2.10;;;;;;;;;;5101337;28;20474;-60
2022/04/10 13:47:37;;;;;;;8.65;1.42;;;;;;;;;;5098512;28;20105;-60
2022/04/10 13:50:04;;;;;;;11.45;1.27;;;;;;;;;;5093421;28;20436;-60
2022/04/10 13:52:31;;;;;;;7.72;1.63;;;;;;;;;;5098548;28;20048;-60
2022/04/10 13:54:57;;;;;;;14.50;1.70;;;;;;;;;;5112045;28;20545;-60
2022/04/10 13:57:23;;;;;;;5.10;1.30;;;;;;;;;;5110549;28;20024;-60
2022/04/10 13:59:49;;;;;;;8.18;1.38;;;;;;;;;;5101897;28;20032;-60
2022/04/10 14:02:16;;;;;;;8.05;1.27;;;;;;;;;;5103720;28;20073;-60
2022/04/10 14:04:42;;;;;;;11.23;1.45;;;;;;;;;;5109908;28;20070;-61
2022/04/10 14:07:08;;;;;;;8.23;1.40;;;;;;;;;;5113973;28;20550;-61
2022/04/10 14:09:34;;;;;;;8.55;1.45;;;;;;;;;;5114042;28;20030;-61
2022/04/10 14:12:04;;;;;;;5.78;1.00;;;;;;;;;;5113865;28;20100;-60
2022/04/10 14:14:31;;;;;;;8.63;1.17;;;;;;;;;;5113951;28;20031;-61
2022/04/10 14:16:59;;;;;;;4.30;1.13;;;;;;;;;;5113735;28;20016;-60
2022/04/10 14:19:25;;;;;;;3.47;0.90;;;;;;;;;;5113968;28;20490;-60
2022/04/10 14:21:51;;;;;;;4.30;1.00;;;;;;;;;;5113651;28;20016;-61
2022/04/10 14:24:17;;;;;;;5.70;1.02;;;;;;;;;;5113446;28;20432;-61
2022/04/10 14:26:43;;;;;;;8.52;1.38;;;;;;;;;;5113733;28;20030;-60
2022/04/10 14:29:09;;;;;;;3.03;1.15;;;;;;;;;;5113283;28;20027;-60
2022/04/10 14:31:35;;;;;;;11.43;1.20;;;;;;;;;;5113480;28;20020;-60
2022/04/10 14:34:05;;;;;;;9.40;1.00;;;;;;;;;;5113936;28;20034;-60
2022/04/10 14:36:31;;;;;;;4.93;1.15;;;;;;;;;;5113539;28;20494;-60
2022/04/10 14:38:57;;;;;;;4.72;0.88;;;;;;;;;;5113749;28;20128;-60
2022/04/10 14:41:24;;;;;;;2.65;0.90;;;;;;;;;;5113396;28;20024;-60
2022/04/10 14:43:50;;;;;;;3.95;1.10;;;;;;;;;;5113486;28;20083;-60
2022/04/10 14:46:18;;;;;;;2.85;1.10;;;;;;;;;;5113225;28;20038;-60
2022/04/10 14:48:44;;;;;;;3.67;1.10;;;;;;;;;;5102350;28;20490;-60